createdAt,value
2019-05-20T00:00:00.219Z,713.1
2019-05-20T00:01:02.373Z,712.9
2019-05-20T00:02:04.798Z,712.7
2019-05-20T00:03:06.688Z,712.9
2019-05-20T00:04:08.314Z,712.9
2019-05-20T00:05:10.743Z,712.8
2019-05-20T00:06:13.409Z,713.1
2019-05-20T00:07:15.311Z,713
2019-05-20T00:08:17.447Z,713
2019-05-20T00:09:19.886Z,713.1
2019-05-20T00:10:22.318Z,713.5
2019-05-20T00:11:24.757Z,713.4
2019-05-20T00:12:27.183Z,713.7
2019-05-20T00:13:29.346Z,713.5
2019-05-20T00:14:31.222Z,714.1
2019-05-20T00:15:33.644Z,714
2019-05-20T00:16:36.063Z,714
2019-05-20T00:17:38.241Z,714.1
2019-05-20T00:18:40.704Z,713.7
2019-05-20T00:19:42.916Z,714.2
2019-05-20T00:20:45.358Z,713.8
2019-05-20T00:21:47.798Z,714.2
2019-05-20T00:22:50.004Z,714.1
2019-05-20T00:23:52.643Z,714
2019-05-20T00:24:54.834Z,713.7
2019-05-20T00:25:57.316Z,713.9
2019-05-20T00:26:59.487Z,713.8
2019-05-20T00:28:01.676Z,713.9
2019-05-20T00:29:03.836Z,714
2019-05-20T00:30:06.275Z,713.7
2019-05-20T00:31:08.715Z,713.6
2019-05-20T00:32:11.142Z,714.1
2019-05-20T00:33:13.044Z,714.2
2019-05-20T00:34:15.468Z,714.4
2019-05-20T00:35:17.928Z,714.6
2019-05-20T00:36:20.428Z,714.6
2019-05-20T00:37:22.859Z,715.1
2019-05-20T00:38:25.278Z,715.3
2019-05-20T00:39:27.701Z,715.4
2019-05-20T00:40:30.123Z,715.4
2019-05-20T00:41:32.541Z,716.2
2019-05-20T00:42:35.012Z,716
2019-05-20T00:43:37.178Z,716
2019-05-20T00:44:39.056Z,716.6
2019-05-20T00:45:41.486Z,716.6
2019-05-20T00:46:43.925Z,716.6
2019-05-20T00:47:46.354Z,716.6
2019-05-20T00:48:48.781Z,716.6
2019-05-20T00:49:50.652Z,716.5
2019-05-20T00:50:53.082Z,716.9
2019-05-20T00:51:55.524Z,716.8
2019-05-20T00:52:57.955Z,716.7
2019-05-20T00:54:00.385Z,716.6
2019-05-20T00:55:02.540Z,716.8
2019-05-20T00:56:04.695Z,716.7
2019-05-20T00:57:07.137Z,716.8
2019-05-20T00:58:09.308Z,717.1
2019-05-20T00:59:11.484Z,717.2
2019-05-20T01:00:13.640Z,717.4
2019-05-20T01:01:16.065Z,717.3
2019-05-20T01:02:18.506Z,717.4
2019-05-20T01:03:20.942Z,718
2019-05-20T01:04:23.410Z,717.9
2019-05-20T01:05:25.874Z,717.5
2019-05-20T01:06:27.736Z,717.6
2019-05-20T01:07:30.165Z,717.6
2019-05-20T01:08:32.320Z,717.3
2019-05-20T01:09:34.476Z,717.1
2019-05-20T01:10:36.916Z,717.5
2019-05-20T01:11:38.783Z,717.1
2019-05-20T01:12:41.201Z,717.8
2019-05-20T01:13:43.331Z,717.7
2019-05-20T01:14:45.482Z,718
2019-05-20T01:15:47.921Z,717.8
2019-05-20T01:16:50.370Z,718
2019-05-20T01:17:52.794Z,718.1
2019-05-20T01:18:55.218Z,718.4
2019-05-20T01:19:57.114Z,717.9
2019-05-20T01:20:59.546Z,718
2019-05-20T01:22:01.982Z,718
2019-05-20T01:23:04.413Z,718.2
2019-05-20T01:24:06.567Z,718.2
2019-05-20T01:25:08.997Z,718.5
2019-05-20T01:26:11.435Z,719
2019-05-20T01:27:13.862Z,719.1
2019-05-20T01:28:16.284Z,719.2
2019-05-20T01:29:18.720Z,719.2
2019-05-20T01:30:21.161Z,719.2
2019-05-20T01:31:23.065Z,718.8
2019-05-20T01:32:25.498Z,719.2
2019-05-20T01:33:27.654Z,718.7
2019-05-20T01:34:29.526Z,719.1
2019-05-20T01:35:31.962Z,718.5
2019-05-20T01:36:34.221Z,718.5
2019-05-20T01:37:36.654Z,718.2
2019-05-20T01:38:38.826Z,718.3
2019-05-20T01:39:41.250Z,718.1
2019-05-20T01:40:43.688Z,718.1
2019-05-20T01:41:45.852Z,717.9
2019-05-20T01:42:48.284Z,717.9
2019-05-20T01:43:50.438Z,717.8
2019-05-20T01:44:52.950Z,718.1
2019-05-20T01:45:55.375Z,718
2019-05-20T01:46:57.537Z,718
2019-05-20T01:47:59.958Z,718.2
2019-05-20T01:49:02.386Z,718.1
2019-05-20T01:50:04.815Z,718.2
2019-05-20T01:51:07.245Z,718.3
2019-05-20T01:52:09.438Z,718.5
2019-05-20T01:53:11.575Z,718.8
2019-05-20T01:54:13.499Z,718.7
2019-05-20T01:55:15.929Z,718.8
2019-05-20T01:56:18.090Z,718.9
2019-05-20T01:57:20.243Z,718.8
2019-05-20T01:58:22.443Z,719
2019-05-20T01:59:24.873Z,718.9
2019-05-20T02:00:27.379Z,719.1
2019-05-20T02:01:29.990Z,719.3
2019-05-20T02:02:31.905Z,719
2019-05-20T02:03:34.609Z,719.1
2019-05-20T02:04:36.794Z,719
2019-05-20T02:05:39.290Z,719
2019-05-20T02:06:41.720Z,718.7
2019-05-20T02:07:43.589Z,718.9
2019-05-20T02:08:45.736Z,719.2
2019-05-20T02:09:47.618Z,718.9
2019-05-20T02:10:50.052Z,719
2019-05-20T02:11:52.488Z,719.1
2019-05-20T02:12:54.916Z,719.2
2019-05-20T02:13:57.362Z,719.4
2019-05-20T02:14:59.514Z,719.8
2019-05-20T02:16:01.380Z,719.8
2019-05-20T02:17:04.748Z,719.9
2019-05-20T02:18:06.896Z,719.9
2019-05-20T02:19:09.041Z,719.6
2019-05-20T02:20:11.474Z,719.2
2019-05-20T02:21:13.895Z,719.5
2019-05-20T02:22:16.044Z,719.7
2019-05-20T02:23:18.509Z,719.6
2019-05-20T02:24:20.930Z,720
2019-05-20T02:25:23.363Z,720
2019-05-20T02:26:25.789Z,720.1
2019-05-20T02:27:28.248Z,720.2
2019-05-20T02:28:30.686Z,720.1
2019-05-20T02:29:33.115Z,720.2
2019-05-20T02:30:35.266Z,720.3
2019-05-20T02:31:37.446Z,720.3
2019-05-20T02:32:39.613Z,720.3
2019-05-20T02:34:47.024Z,720.7
2019-05-20T02:35:49.459Z,721
2019-05-20T02:36:51.875Z,720.8
2019-05-20T02:37:54.308Z,720.7
2019-05-20T02:38:56.463Z,720.8
2019-05-20T02:39:58.893Z,721
2019-05-20T02:41:01.319Z,720.8
2019-05-20T02:42:03.806Z,720.8
2019-05-20T02:43:06.236Z,721.1
2019-05-20T02:44:08.672Z,721.1
2019-05-20T02:45:11.134Z,720.9
2019-05-20T02:46:13.601Z,721.1
2019-05-20T02:47:16.021Z,720.9
2019-05-20T02:48:18.451Z,721.2
2019-05-20T02:49:20.884Z,721.1
2019-05-20T02:50:23.329Z,721.1
2019-05-20T02:51:25.761Z,721.1
2019-05-20T02:52:28.199Z,721
2019-05-20T02:53:30.803Z,721.1
2019-05-20T02:54:33.240Z,720.7
2019-05-20T02:55:35.667Z,720.6
2019-05-20T02:56:37.847Z,721.1
2019-05-20T02:57:40.273Z,720.5
2019-05-20T02:58:42.145Z,720.8
2019-05-20T02:59:44.570Z,720.8
2019-05-20T03:00:47.002Z,721.2
2019-05-20T03:01:49.415Z,721
2019-05-20T03:02:51.837Z,720.8
2019-05-20T03:04:58.680Z,721.3
2019-05-20T03:06:01.127Z,721.1
2019-05-20T03:07:03.573Z,721.1
2019-05-20T03:08:06.020Z,721.2
2019-05-20T03:10:14.126Z,721.4
2019-05-20T03:11:16.558Z,721.1
2019-05-20T03:12:18.719Z,721
2019-05-20T03:13:21.169Z,721.3
2019-05-20T03:14:23.600Z,721.3
2019-05-20T03:15:26.026Z,721.5
2019-05-20T03:16:28.454Z,721.3
2019-05-20T03:17:30.886Z,721.2
2019-05-20T03:18:33.315Z,721.1
2019-05-20T03:19:35.467Z,721.7
2019-05-20T03:20:37.340Z,721.7
2019-05-20T03:21:39.763Z,721.7
2019-05-20T03:22:42.194Z,722.1
2019-05-20T03:23:44.622Z,722.2
2019-05-20T03:24:46.782Z,722.3
2019-05-20T03:25:48.933Z,722.6
2019-05-20T03:26:51.569Z,722.8
2019-05-20T03:27:53.986Z,723.1
2019-05-20T03:29:25.737Z,723.5
2019-05-20T03:30:27.612Z,723.6
2019-05-20T03:31:30.429Z,723.7
2019-05-20T03:32:32.898Z,723.6
2019-05-20T03:33:35.336Z,723.8
2019-05-20T03:35:42.743Z,723.7
2019-05-20T03:36:45.190Z,724
2019-05-20T03:37:47.614Z,723.7
2019-05-20T03:38:50.035Z,724.1
2019-05-20T03:39:51.917Z,724.2
2019-05-20T03:40:54.076Z,724.6
2019-05-20T03:41:56.215Z,724.8
2019-05-20T03:42:58.655Z,724.4
2019-05-20T03:44:01.085Z,724.7
2019-05-20T03:45:03.519Z,724.9
2019-05-20T03:46:05.997Z,724.7
2019-05-20T03:47:08.442Z,724.5
2019-05-20T03:48:10.874Z,724.6
2019-05-20T03:49:13.311Z,724.5
2019-05-20T03:50:15.724Z,724.9
2019-05-20T03:51:17.901Z,724.6
2019-05-20T03:52:20.348Z,724.4
2019-05-20T03:53:22.482Z,724.5
2019-05-20T03:54:24.550Z,724.5
2019-05-20T03:55:26.711Z,724.6
2019-05-20T03:56:29.154Z,724.7
2019-05-20T03:57:31.589Z,725
2019-05-20T03:58:34.036Z,724.3
2019-05-20T03:59:36.195Z,724.4
2019-05-20T04:00:38.638Z,724.6
2019-05-20T04:01:41.089Z,724.3
2019-05-20T04:02:43.256Z,724.4
2019-05-20T04:03:45.675Z,724.6
2019-05-20T04:05:52.807Z,724.9
2019-05-20T04:06:55.235Z,725
2019-05-20T04:07:57.664Z,725.1
2019-05-20T04:09:00.085Z,725.8
2019-05-20T04:10:02.265Z,725.5
2019-05-20T04:11:04.766Z,726.7
2019-05-20T04:12:07.371Z,726.6
2019-05-20T04:13:09.901Z,726.3
2019-05-20T04:14:12.415Z,725.7
2019-05-20T04:15:14.923Z,725.6
2019-05-20T04:16:17.077Z,725.4
2019-05-20T04:17:19.500Z,725.1
2019-05-20T04:18:21.655Z,725.2
2019-05-20T04:19:24.435Z,725.5
2019-05-20T04:20:26.857Z,725.3
2019-05-20T04:21:29.026Z,725.2
2019-05-20T04:22:33.461Z,725.3
2019-05-20T04:23:36.160Z,725.3
2019-05-20T04:24:38.314Z,725.5
2019-05-20T04:25:40.737Z,725.5
2019-05-20T04:26:43.162Z,725.6
2019-05-20T04:27:45.593Z,725.5
2019-05-20T04:28:48.201Z,725.5
2019-05-20T04:29:51.394Z,725.3
2019-05-20T04:30:53.893Z,725.1
2019-05-20T04:31:56.321Z,725
2019-05-20T04:32:58.476Z,724.4
2019-05-20T04:34:01.517Z,724
2019-05-20T04:36:08.920Z,723.4
2019-05-20T04:37:11.446Z,722.8
2019-05-20T04:38:13.647Z,722.5
2019-05-20T04:39:16.092Z,722.1
2019-05-20T04:40:18.292Z,722
2019-05-20T04:41:20.441Z,722.1
2019-05-20T04:42:22.864Z,721.7
2019-05-20T04:43:25.304Z,721.9
2019-05-20T04:44:27.956Z,721.9
2019-05-20T04:45:30.379Z,721.6
2019-05-20T04:46:33.729Z,721.8
2019-05-20T04:47:35.602Z,721.7
2019-05-20T04:48:38.030Z,721.7
2019-05-20T04:49:40.474Z,721.2
2019-05-20T04:50:43.245Z,721.1
2019-05-20T04:51:45.686Z,720.9
2019-05-20T04:52:47.886Z,720.1
2019-05-20T04:53:50.558Z,720.6
2019-05-20T04:54:53.363Z,720.4
2019-05-20T04:55:55.555Z,720.6
2019-05-20T04:56:57.987Z,720.5
2019-05-20T04:58:00.321Z,720.6
2019-05-20T04:59:02.490Z,720.7
2019-05-20T05:00:04.899Z,720.6
2019-05-20T05:01:07.248Z,721
2019-05-20T05:02:09.676Z,721.2
2019-05-20T05:03:12.101Z,721.4
2019-05-20T05:04:15.089Z,721.5
2019-05-20T05:05:17.405Z,721.9
2019-05-20T05:06:20.446Z,721.9
2019-05-20T05:07:23.062Z,721.7
2019-05-20T05:08:25.684Z,722
2019-05-20T05:09:28.099Z,722.4
2019-05-20T05:10:30.263Z,722.7
2019-05-20T05:11:32.513Z,722.6
2019-05-20T05:12:35.126Z,722.9
2019-05-20T05:13:37.550Z,723
2019-05-20T05:14:39.992Z,723.1
2019-05-20T05:15:42.417Z,722.9
2019-05-20T05:16:44.841Z,722.9
2019-05-20T05:17:46.994Z,723.2
2019-05-20T05:18:49.421Z,723.1
2019-05-20T05:19:51.858Z,723.4
2019-05-20T05:20:54.324Z,723.6
2019-05-20T05:21:56.947Z,723.5
2019-05-20T05:22:59.510Z,723.4
2019-05-20T05:24:02.016Z,723.6
2019-05-20T05:25:04.258Z,723
2019-05-20T05:26:06.164Z,723.5
2019-05-20T05:27:08.643Z,723.9
2019-05-20T05:28:11.052Z,723.9
2019-05-20T05:29:13.494Z,724.5
2019-05-20T05:30:15.934Z,724.7
2019-05-20T05:31:18.092Z,724.5
2019-05-20T05:32:20.529Z,724.5
2019-05-20T05:33:22.991Z,724.6
2019-05-20T05:34:25.416Z,724.8
2019-05-20T05:35:28.692Z,724.7
2019-05-20T05:36:31.116Z,724.9
2019-05-20T05:37:33.283Z,724.8
2019-05-20T05:38:35.432Z,725.1
2019-05-20T05:39:37.595Z,725
2019-05-20T05:40:40.024Z,725.3
2019-05-20T05:41:42.452Z,725.1
2019-05-20T05:42:44.884Z,725.4
2019-05-20T05:43:47.066Z,724.9
2019-05-20T05:44:49.217Z,724.7
2019-05-20T05:45:51.376Z,725
2019-05-20T05:46:53.535Z,724.9
2019-05-20T05:47:55.968Z,725.1
2019-05-20T05:48:58.123Z,724.8
2019-05-20T05:50:01.050Z,725.2
2019-05-20T05:51:04.097Z,725
2019-05-20T05:52:06.265Z,724.6
2019-05-20T05:53:08.398Z,724.8
2019-05-20T05:54:10.873Z,724.7
2019-05-20T05:55:13.324Z,724.5
2019-05-20T05:56:15.479Z,724.4
2019-05-20T05:57:17.903Z,724
2019-05-20T05:58:20.336Z,724.4
2019-05-20T05:59:22.762Z,724.3
2019-05-20T06:00:24.976Z,724.5
2019-05-20T06:01:27.392Z,724.4
2019-05-20T06:02:29.821Z,724.3
2019-05-20T06:03:32.265Z,723.9
2019-05-20T06:04:34.687Z,723.6
2019-05-20T06:05:37.194Z,723.3
2019-05-20T06:06:39.683Z,723
2019-05-20T06:07:42.167Z,722.8
2019-05-20T06:08:44.352Z,722.3
2019-05-20T06:09:46.787Z,722.5
2019-05-20T06:10:49.242Z,721.6
2019-05-20T06:11:51.977Z,721.3
2019-05-20T06:12:54.476Z,721.3
2019-05-20T06:13:56.676Z,721.1
2019-05-20T06:14:59.185Z,721.4
2019-05-20T06:16:01.357Z,721.2
2019-05-20T06:17:03.841Z,721.8
2019-05-20T06:18:06.272Z,721.9
2019-05-20T06:19:08.424Z,721.9
2019-05-20T06:20:10.926Z,721.5
2019-05-20T06:21:13.099Z,721.6
2019-05-20T06:22:16.276Z,721.8
2019-05-20T06:23:18.707Z,721.6
2019-05-20T06:24:20.864Z,722
2019-05-20T06:25:23.025Z,721.8
2019-05-20T06:26:25.535Z,721.7
2019-05-20T06:27:27.682Z,721.3
2019-05-20T06:28:30.117Z,721.4
2019-05-20T06:29:32.543Z,721.7
2019-05-20T06:30:34.967Z,721.6
2019-05-20T06:31:37.163Z,721.6
2019-05-20T06:32:39.595Z,721.8
2019-05-20T06:33:41.492Z,721.7
2019-05-20T06:34:45.119Z,722
2019-05-20T06:35:47.012Z,722
2019-05-20T06:36:49.444Z,721.7
2019-05-20T06:37:51.924Z,721.8
2019-05-20T06:38:53.846Z,721.6
2019-05-20T06:39:55.748Z,721.3
2019-05-20T06:40:58.423Z,722.1
2019-05-20T06:42:00.656Z,721.5
2019-05-20T06:43:02.854Z,721.9
2019-05-20T06:44:05.018Z,721.5
2019-05-20T06:45:06.874Z,721.3
2019-05-20T06:46:09.309Z,721.2
2019-05-20T06:47:11.751Z,721.3
2019-05-20T06:48:13.673Z,721.1
2019-05-20T06:49:15.832Z,721.3
2019-05-20T06:50:17.989Z,721.5
2019-05-20T06:51:20.128Z,721.6
2019-05-20T06:53:27.269Z,721.4
2019-05-20T06:54:29.692Z,721.6
2019-05-20T06:55:31.834Z,721.9
2019-05-20T06:56:34.338Z,721.4
2019-05-20T06:57:36.783Z,721.4
2019-05-20T06:58:38.929Z,721.4
2019-05-20T06:59:41.053Z,721.5
2019-05-20T07:00:43.203Z,721.3
2019-05-20T07:01:45.703Z,721.2
2019-05-20T07:02:48.114Z,721.2
2019-05-20T07:03:50.556Z,721.2
2019-05-20T07:04:52.998Z,720.7
2019-05-20T07:05:55.437Z,721.4
2019-05-20T07:06:57.911Z,721.3
2019-05-20T07:09:05.048Z,720.8
2019-05-20T07:10:07.477Z,720.9
2019-05-20T07:11:09.908Z,720.2
2019-05-20T07:12:12.351Z,720.2
2019-05-20T07:14:19.767Z,719.9
2019-05-20T07:15:21.922Z,720.2
2019-05-20T07:16:24.355Z,720.3
2019-05-20T07:17:26.527Z,720.3
2019-05-20T07:18:29.321Z,720.3
2019-05-20T07:19:31.759Z,720.4
2019-05-20T07:20:34.185Z,720.7
2019-05-20T07:21:36.625Z,720.5
2019-05-20T07:23:44.045Z,720.6
2019-05-20T07:24:46.213Z,720.6
2019-05-20T07:25:48.661Z,721
2019-05-20T07:26:51.352Z,720.7
2019-05-20T07:27:53.938Z,721.2
2019-05-20T07:28:56.142Z,720.9
2019-05-20T07:29:58.318Z,721
2019-05-20T07:31:00.795Z,720.9
2019-05-20T07:32:02.998Z,721.4
2019-05-20T07:33:05.466Z,720.9
2019-05-20T07:34:07.620Z,720.9
2019-05-20T07:35:09.775Z,721.1
2019-05-20T07:36:11.703Z,721.3
2019-05-20T07:37:13.856Z,721.1
2019-05-20T07:38:16.283Z,721.3
2019-05-20T07:39:18.713Z,721.3
2019-05-20T07:40:20.630Z,721.3
2019-05-20T07:41:22.809Z,720.9
2019-05-20T07:42:25.325Z,721
2019-05-20T07:43:27.755Z,721.5
2019-05-20T07:44:30.202Z,721
2019-05-20T07:45:32.733Z,721.2
2019-05-20T07:46:34.651Z,721.2
2019-05-20T07:47:36.555Z,721
2019-05-20T07:48:39.522Z,720.9
2019-05-20T07:49:41.999Z,721.2
2019-05-20T07:50:44.544Z,721
2019-05-20T07:51:47.201Z,721.2
2019-05-20T07:52:49.643Z,721.3
2019-05-20T07:53:52.304Z,721.1
2019-05-20T07:54:54.273Z,720.9
2019-05-20T07:55:56.465Z,720.8
2019-05-20T07:56:58.895Z,720.8
2019-05-20T07:58:01.163Z,721
2019-05-20T07:59:03.584Z,721.1
2019-05-20T08:00:06.026Z,721.1
2019-05-20T08:01:08.463Z,721.1
2019-05-20T08:02:10.636Z,720.8
2019-05-20T08:03:12.787Z,720.9
2019-05-20T08:04:15.646Z,721.2
2019-05-20T08:05:18.073Z,721.2
2019-05-20T08:06:20.672Z,721
2019-05-20T08:08:28.159Z,720.9
2019-05-20T08:09:30.617Z,720.5
2019-05-20T08:10:32.777Z,720.7
2019-05-20T08:11:34.688Z,720.8
2019-05-20T08:12:36.855Z,720.5
2019-05-20T08:13:39.004Z,720.8
2019-05-20T08:14:41.169Z,720.7
2019-05-20T08:15:43.363Z,720.4
2019-05-20T08:16:45.855Z,720.3
2019-05-20T08:17:48.430Z,720.7
2019-05-20T08:18:50.968Z,720.6
2019-05-20T08:19:53.171Z,720.3
2019-05-20T08:20:55.321Z,720.4
2019-05-20T08:21:57.951Z,720.5
2019-05-20T08:23:00.407Z,720.6
2019-05-20T08:24:03.536Z,720.1
2019-05-20T08:25:05.697Z,720.5
2019-05-20T08:26:08.125Z,720.1
2019-05-20T08:27:10.564Z,719.7
2019-05-20T08:28:13.029Z,720
2019-05-20T08:29:15.474Z,719.9
2019-05-20T08:30:17.913Z,719.9
2019-05-20T08:31:20.353Z,719.3
2019-05-20T08:32:22.946Z,719.4
2019-05-20T08:33:25.126Z,719.3
2019-05-20T08:34:27.432Z,719.3
2019-05-20T08:35:29.874Z,719.5
2019-05-20T08:36:32.401Z,719.3
2019-05-20T08:38:39.901Z,719.9
2019-05-20T08:39:42.333Z,719.5
2019-05-20T08:41:50.439Z,720
2019-05-20T08:42:52.315Z,719.6
2019-05-20T08:43:54.484Z,719.7
2019-05-20T08:44:56.643Z,719.5
2019-05-20T08:45:58.526Z,719.8
2019-05-20T08:47:01.108Z,719.6
2019-05-20T08:48:03.557Z,719.7
2019-05-20T08:51:16.908Z,719.9
2019-05-20T08:52:19.071Z,719.9
2019-05-20T08:53:21.273Z,719.6
2019-05-20T08:54:23.966Z,719.8
2019-05-20T08:55:26.406Z,719.5
2019-05-20T08:56:28.565Z,719.7
2019-05-20T08:57:31.020Z,719.6
2019-05-20T08:58:33.449Z,720
2019-05-20T08:59:35.616Z,719.7
2019-05-20T09:00:37.497Z,719.8
2019-05-20T09:01:39.921Z,719.6
2019-05-20T09:02:42.097Z,719.7
2019-05-20T09:03:44.521Z,719.7
2019-05-20T09:04:46.954Z,719.9
2019-05-20T09:05:49.121Z,719.8
2019-05-20T09:06:51.780Z,719.9
2019-05-20T09:08:58.961Z,719.5
2019-05-20T09:10:01.355Z,719.7
2019-05-20T09:11:03.913Z,719.9
2019-05-20T09:12:06.413Z,719.9
2019-05-20T09:13:08.835Z,719.9
2019-05-20T09:14:11.266Z,719.8
2019-05-20T09:15:13.431Z,720.3
2019-05-20T09:16:15.738Z,720.1
2019-05-20T09:17:18.176Z,720
2019-05-20T09:18:20.633Z,720.1
2019-05-20T09:19:23.064Z,720
2019-05-20T09:20:26.146Z,720
2019-05-20T09:21:28.596Z,720.2
2019-05-20T09:22:30.844Z,720.1
2019-05-20T09:23:33.255Z,720.1
2019-05-20T09:24:36.334Z,720
2019-05-20T09:25:38.800Z,720.2
2019-05-20T09:26:40.969Z,720.1
2019-05-20T09:27:43.419Z,720.3
2019-05-20T09:28:45.868Z,720
2019-05-20T09:29:47.766Z,720
2019-05-20T09:30:50.050Z,720.3
2019-05-20T09:31:52.261Z,720.1
2019-05-20T09:32:54.694Z,720.1
2019-05-20T09:33:56.584Z,720.3
2019-05-20T09:34:59.144Z,720.2
2019-05-20T09:36:02.424Z,720.4
2019-05-20T09:37:04.862Z,720.4
2019-05-20T09:39:12.007Z,720.3
2019-05-20T09:40:14.463Z,720.5
2019-05-20T09:41:16.887Z,720.4
2019-05-20T09:42:19.034Z,720.2
2019-05-20T09:43:21.469Z,720.4
2019-05-20T09:44:23.995Z,720.2
2019-05-20T09:45:26.155Z,720.3
2019-05-20T09:46:28.584Z,720
2019-05-20T09:47:31.081Z,720.3
2019-05-20T09:48:33.523Z,719.9
2019-05-20T09:49:35.815Z,720.2
2019-05-20T09:50:38.319Z,720.3
2019-05-20T09:51:40.815Z,720.4
2019-05-20T09:52:43.254Z,719.9
2019-05-20T09:53:45.420Z,720.2
2019-05-20T09:54:47.563Z,720.1
2019-05-20T09:55:49.750Z,720.3
2019-05-20T09:56:52.176Z,720
2019-05-20T09:57:54.615Z,720.2
2019-05-20T09:58:57.031Z,719.7
2019-05-20T09:59:59.455Z,719.7
2019-05-20T10:01:01.305Z,719.9
2019-05-20T10:02:03.249Z,719.8
2019-05-20T10:03:08.379Z,719.6
2019-05-20T10:04:10.535Z,719.5
2019-05-20T10:05:12.986Z,719.4
2019-05-20T10:06:14.925Z,719.6
2019-05-20T10:07:17.385Z,719.9
2019-05-20T10:09:24.512Z,719.6
2019-05-20T10:10:26.932Z,719.4
2019-05-20T10:11:29.094Z,719.4
2019-05-20T10:13:36.514Z,719.5
2019-05-20T10:14:38.944Z,719.6
2019-05-20T10:15:41.119Z,719.2
2019-05-20T10:16:43.561Z,719.1
2019-05-20T10:17:46.002Z,719.1
2019-05-20T10:18:48.425Z,718.8
2019-05-20T10:19:50.875Z,719.2
2019-05-20T10:20:53.034Z,718.9
2019-05-20T10:21:55.458Z,718.6
2019-05-20T10:22:57.629Z,718.9
2019-05-20T10:23:59.814Z,718.8
2019-05-20T10:25:02.071Z,718.4
2019-05-20T10:26:03.992Z,718.8
2019-05-20T10:27:06.421Z,719.1
2019-05-20T10:28:08.857Z,719.1
2019-05-20T10:29:11.363Z,719
2019-05-20T10:30:13.848Z,718.9
2019-05-20T10:31:16.296Z,718.8
2019-05-20T10:32:18.730Z,718.9
2019-05-20T10:33:20.877Z,719
2019-05-20T10:34:23.075Z,718.7
2019-05-20T10:35:25.508Z,718.5
2019-05-20T10:36:27.406Z,718.9
2019-05-20T10:37:29.553Z,718.8
2019-05-20T10:38:31.792Z,718.8
2019-05-20T10:39:33.971Z,718.8
2019-05-20T10:40:36.122Z,718.4
2019-05-20T10:41:38.291Z,718.1
2019-05-20T10:42:40.740Z,718.3
2019-05-20T10:43:43.168Z,718.2
2019-05-20T10:44:45.342Z,718.5
2019-05-20T10:45:47.506Z,718.2
2019-05-20T10:46:49.670Z,718.4
2019-05-20T10:47:52.526Z,718.8
2019-05-20T10:48:55.013Z,718.4
2019-05-20T10:49:57.175Z,718.3
2019-05-20T10:50:59.357Z,718.7
2019-05-20T10:52:01.513Z,718.5
2019-05-20T10:53:04.038Z,718.6
2019-05-20T10:54:06.472Z,718.6
2019-05-20T10:55:09.127Z,719
2019-05-20T10:56:12.691Z,719.1
2019-05-20T10:57:14.880Z,718.7
2019-05-20T10:58:17.110Z,718.9
2019-05-20T10:59:19.266Z,718.8
2019-05-20T11:00:21.697Z,719
2019-05-20T11:01:23.902Z,719.3
2019-05-20T11:03:32.763Z,719.1
2019-05-20T11:05:40.175Z,718.9
2019-05-20T11:06:42.616Z,719.1
2019-05-20T11:07:44.995Z,718.5
2019-05-20T11:08:47.456Z,718.9
2019-05-20T11:09:49.908Z,718.5
2019-05-20T11:10:52.181Z,718.8
2019-05-20T11:11:54.342Z,718.3
2019-05-20T11:12:56.220Z,718.4
2019-05-20T11:13:58.663Z,718.7
2019-05-20T11:15:01.103Z,718.3
2019-05-20T11:16:03.583Z,718.5
2019-05-20T11:17:06.014Z,718.7
2019-05-20T11:18:08.447Z,718.7
2019-05-20T11:19:10.879Z,718.7
2019-05-20T11:20:13.317Z,718.8
2019-05-20T11:21:15.996Z,718.6
2019-05-20T11:22:18.432Z,718.4
2019-05-20T11:23:20.873Z,718.3
2019-05-20T11:24:23.005Z,718.8
2019-05-20T11:25:25.170Z,718.4
2019-05-20T11:26:27.986Z,718.3
2019-05-20T11:27:30.147Z,718.6
2019-05-20T11:28:32.588Z,718.5
2019-05-20T11:29:34.731Z,718.4
2019-05-20T11:30:36.884Z,718.2
2019-05-20T11:31:38.770Z,718.4
2019-05-20T11:32:41.231Z,718.3
2019-05-20T11:33:43.687Z,718
2019-05-20T11:34:46.191Z,718.4
2019-05-20T11:35:48.723Z,718.6
2019-05-20T11:36:51.162Z,718.2
2019-05-20T11:37:53.598Z,718.3
2019-05-20T11:38:55.736Z,718.1
2019-05-20T11:39:58.711Z,718.2
2019-05-20T11:42:36.417Z,718.3
2019-05-20T11:43:38.854Z,718
2019-05-20T11:44:41.528Z,718.4
2019-05-20T11:45:43.961Z,718.1
2019-05-20T11:46:46.407Z,717.7
2019-05-20T11:47:49.477Z,717.5
2019-05-20T11:48:52.520Z,717.7
2019-05-20T11:49:54.954Z,717.6
2019-05-20T11:50:57.386Z,717
2019-05-20T11:51:59.593Z,716.5
2019-05-20T11:53:02.045Z,716.9
2019-05-20T11:54:04.475Z,717
2019-05-20T11:55:06.937Z,717.7
2019-05-20T11:57:15.420Z,716.6
2019-05-20T11:58:18.796Z,717
2019-05-20T11:59:22.826Z,717.1
2019-05-20T12:00:25.356Z,716.7
2019-05-20T12:01:27.515Z,716.7
2019-05-20T12:02:30.035Z,716.7
2019-05-20T12:03:32.201Z,716.5
2019-05-20T12:04:34.369Z,716.7
2019-05-20T12:05:37.354Z,716.8
2019-05-20T12:06:39.797Z,716.5
2019-05-20T12:07:42.275Z,716.7
2019-05-20T12:08:44.722Z,716.9
2019-05-20T12:10:52.126Z,716.4
2019-05-20T12:11:54.568Z,716.5
2019-05-20T12:12:56.719Z,716.3
2019-05-20T12:13:58.895Z,716.9
2019-05-20T12:15:02.559Z,716.7
2019-05-20T12:16:05.677Z,716.8
2019-05-20T12:17:08.114Z,716.6
2019-05-20T12:18:11.333Z,717.2
2019-05-20T12:19:13.765Z,717.1
2019-05-20T12:20:16.239Z,717.6
2019-05-20T12:21:18.389Z,717.1
2019-05-20T12:22:21.427Z,717.4
2019-05-20T12:23:23.662Z,716.9
2019-05-20T12:24:26.136Z,717.1
2019-05-20T12:25:28.566Z,716.8
2019-05-20T12:26:30.719Z,716.6
2019-05-20T12:27:33.167Z,716.7
2019-05-20T12:28:35.334Z,717
2019-05-20T12:29:37.239Z,717.3
2019-05-20T12:30:39.734Z,716.7
2019-05-20T12:31:41.625Z,717
2019-05-20T12:32:44.082Z,717.2
2019-05-20T12:33:46.512Z,717.2
2019-05-20T12:34:49.247Z,717
2019-05-20T12:35:51.490Z,717.2
2019-05-20T12:36:53.936Z,716.6
2019-05-20T12:37:56.369Z,716.7
2019-05-20T12:38:58.224Z,716.5
2019-05-20T12:41:05.648Z,716.9
2019-05-20T12:42:07.824Z,717
2019-05-20T12:43:10.241Z,716.9
2019-05-20T12:45:17.654Z,716.6
2019-05-20T12:46:20.087Z,716.8
2019-05-20T12:47:22.525Z,716.9
2019-05-20T12:48:25.588Z,716.5
2019-05-20T12:49:28.770Z,716.3
2019-05-20T12:50:31.236Z,716.2
2019-05-20T12:51:33.415Z,715.8
2019-05-20T12:52:36.046Z,715.9
2019-05-20T12:53:38.470Z,715.9
2019-05-20T12:54:40.903Z,715.8
2019-05-20T12:55:43.063Z,715.7
2019-05-20T12:56:45.241Z,715.8
2019-05-20T12:57:47.399Z,716.3
2019-05-20T12:58:49.852Z,715.6
2019-05-20T12:59:52.017Z,715.8
2019-05-20T13:00:54.447Z,716
2019-05-20T13:01:56.867Z,715.9
2019-05-20T13:02:59.282Z,716.1
2019-05-20T13:04:01.711Z,715.9
2019-05-20T13:05:04.276Z,715.7
2019-05-20T13:06:06.429Z,715.6
2019-05-20T13:07:08.586Z,715.7
2019-05-20T13:08:11.195Z,715.9
2019-05-20T13:09:13.355Z,715.7
2019-05-20T13:11:20.765Z,715.8
2019-05-20T13:12:23.183Z,715.7
2019-05-20T13:13:25.376Z,715.4
2019-05-20T13:14:27.552Z,715.5
2019-05-20T13:15:29.979Z,715.2
2019-05-20T13:16:32.567Z,715.4
2019-05-20T13:17:34.973Z,714.5
2019-05-20T13:18:37.477Z,714.7
2019-05-20T13:19:39.902Z,714.5
2019-05-20T13:20:42.650Z,714
2019-05-20T13:21:45.105Z,713.9
2019-05-20T13:22:47.273Z,713.8
2019-05-20T13:23:51.018Z,713.7
2019-05-20T13:24:53.449Z,713.7
2019-05-20T13:25:56.009Z,713.8
2019-05-20T13:26:58.433Z,714.2
2019-05-20T13:28:00.332Z,713.6
2019-05-20T13:29:02.915Z,713.7
2019-05-20T13:30:05.707Z,713.8
2019-05-20T13:31:08.174Z,713.6
2019-05-20T13:32:10.333Z,713.1
2019-05-20T13:33:12.961Z,713
2019-05-20T13:35:21.358Z,713
2019-05-20T13:36:23.796Z,713.6
2019-05-20T13:37:26.222Z,713.6
2019-05-20T13:38:28.659Z,713.8
2019-05-20T13:39:30.795Z,713.8
2019-05-20T13:41:38.215Z,713.3
2019-05-20T13:42:40.388Z,713.4
2019-05-20T13:43:42.546Z,713.7
2019-05-20T13:44:45.001Z,713.5
2019-05-20T13:46:52.405Z,713.8
2019-05-20T13:47:54.934Z,713.7
2019-05-20T13:48:58.102Z,713.4
2019-05-20T13:50:00.590Z,713.3
2019-05-20T13:51:02.603Z,713.5
2019-05-20T13:52:05.058Z,713.3
2019-05-20T13:53:07.221Z,713.8
2019-05-20T13:54:09.102Z,713.7
2019-05-20T13:55:12.523Z,713.2
2019-05-20T13:56:14.672Z,713.3
2019-05-20T13:57:16.288Z,713.1
2019-05-20T13:58:18.838Z,712.9
2019-05-20T13:59:21.259Z,712.9
2019-05-20T14:00:23.717Z,712.6
2019-05-20T14:01:25.873Z,712.5